Time;durP1;ratioP1;P1;durP2;ratioP2;P2;SDS_P1;SDS_P2;PMS_P1;PMS_P2;Temp;Humidity;BMP_temperature;BMP_pressure;BME280_temperature;BME280_humidity;BME280_pressure;Samples;Min_cycle;Max_cycle;Signal;HPM_P1;HPM_P2
2022/09/24 00:01:12;;;;;;;0.00;0.00;;;;;;;14.29;64.58;101478.09;7370883;19;20077;-60
2022/09/24 00:03:40;;;;;;;0.00;0.00;;;;;;;14.28;64.54;101477.25;7368677;19;20470;-60
2022/09/24 00:06:06;;;;;;;0.08;0.08;;;;;;;14.27;63.98;101472.03;7369271;19;20031;-59
2022/09/24 00:08:32;;;;;;;0.00;0.00;;;;;;;14.25;64.23;101466.84;7372346;19;20049;-59
2022/09/24 00:11:02;;;;;;;0.05;0.05;;;;;;;14.25;65.00;101465.97;7375278;19;20070;-60
2022/09/24 00:13:28;;;;;;;0.00;0.00;;;;;;;14.22;64.77;101460.78;7368071;19;20010;-60
2022/09/24 00:15:54;;;;;;;0.00;0.00;;;;;;;14.19;63.83;101455.59;7371095;19;21042;-60
2022/09/24 00:18:20;;;;;;;0.00;0.00;;;;;;;14.17;64.54;101463.53;7368491;19;20011;-60
2022/09/24 00:20:46;;;;;;;0.00;0.00;;;;;;;14.13;64.98;101456.63;7371741;19;20026;-58
2022/09/24 00:23:12;;;;;;;0.00;0.00;;;;;;;14.11;65.61;101465.47;7373205;19;20007;-59
2022/09/24 00:28:30;;;;;;;0.00;0.00;;;;;;;14.05;65.20;101471.72;7351418;19;20086;-60
2022/09/24 00:30:57;;;;;;;0.00;0.00;;;;;;;14.02;64.69;101463.91;7358998;19;20034;-60
2022/09/24 00:33:23;;;;;;;0.00;0.00;;;;;;;13.98;64.64;101462.25;7361983;19;20872;-60
2022/09/24 00:35:48;;;;;;;0.00;0.00;;;;;;;14.00;64.92;101469.22;7362267;19;20029;-56
2022/09/24 00:38:14;;;;;;;0.08;0.08;;;;;;;13.98;64.93;101467.50;7362379;19;20015;-61
2022/09/24 00:40:40;;;;;;;0.03;0.03;;;;;;;13.97;64.01;101471.03;7360672;19;20033;-59
2022/09/24 00:43:40;;;;;;;0.08;0.08;;;;;;;13.97;63.63;101476.28;7362665;19;20022;-60
2022/09/24 00:46:26;;;;;;;0.00;0.00;;;;;;;13.91;64.04;101472.06;7254548;19;2004297;-60
2022/09/24 00:48:56;;;;;;;0.00;0.00;;;;;;;13.88;64.30;101471.25;7359517;19;20010;-61
2022/09/24 00:51:25;;;;;;;0.00;0.00;;;;;;;13.86;64.99;101473.06;7364984;19;20022;-60
2022/09/24 00:53:55;;;;;;;0.10;0.10;;;;;;;13.79;64.54;101461.88;7361298;19;20648;-60
2022/09/24 00:56:22;;;;;;;0.00;0.00;;;;;;;13.77;64.60;101472.38;7362101;19;20386;-59
2022/09/24 00:58:55;;;;;;;0.10;0.10;;;;;;;13.75;64.95;101471.56;7363078;19;20007;-60
2022/09/24 01:01:24;;;;;;;0.00;0.00;;;;;;;13.70;64.83;101462.94;7362292;19;20027;-60
2022/09/24 01:03:54;;;;;;;0.00;0.00;;;;;;;13.67;65.49;101460.38;7362265;19;20018;-60
2022/09/24 01:06:19;;;;;;;0.00;0.00;;;;;;;13.63;65.07;101457.84;7359803;19;20035;-58
2022/09/24 01:08:45;;;;;;;0.08;0.08;;;;;;;13.48;65.36;101435.44;7362946;19;20085;-60
2022/09/24 01:11:32;;;;;;;0.00;0.00;;;;;;;13.59;65.20;101454.47;7359963;19;20074;-61
2022/09/24 01:14:16;;;;;;;;;;;;;;;13.60;64.34;101471.91;7361901;19;20054;-59
2022/09/24 01:17:16;;;;;;;0.00;0.00;;;;;;;13.58;64.62;101468.44;7360411;19;19930;-61
2022/09/24 01:20:36;;;;;;;0.00;0.00;;;;;;;13.57;64.46;101455.38;7259259;19;2004218;-60
2022/09/24 01:23:11;;;;;;;0.00;0.00;;;;;;;13.54;65.17;101466.81;7255172;19;2004396;-61
2022/09/24 01:26:18;;;;;;;0.00;0.00;;;;;;;13.53;64.70;101465.06;7358706;19;20123;-60
2022/09/24 01:29:04;;;;;;;;;;;;;;;13.51;64.38;101466.88;7256679;19;2004332;-57
2022/09/24 01:31:41;;;;;;;0.00;0.00;;;;;;;13.50;65.49;101470.41;7361855;19;19918;-58
2022/09/24 01:34:11;;;;;;;0.00;0.00;;;;;;;13.47;65.67;101473.09;7359308;19;20002;-60
2022/09/24 01:36:39;;;;;;;0.00;0.00;;;;;;;13.46;66.08;101460.88;7355439;19;20006;-60
2022/09/24 01:39:06;;;;;;;0.00;0.00;;;;;;;13.45;65.96;101467.03;7360533;19;20613;-59
2022/09/24 01:41:33;;;;;;;;;;;;;;;13.47;64.67;101480.97;7359583;19;20110;-60
2022/09/24 01:43:59;;;;;;;0.00;0.00;;;;;;;13.44;65.98;101470.53;7358023;19;19926;-60
2022/09/24 01:46:25;;;;;;;0.00;0.00;;;;;;;13.43;66.60;101474.03;7360393;19;20018;-60
2022/09/24 01:48:51;;;;;;;0.00;0.00;;;;;;;13.44;65.56;101473.16;7360463;19;20039;-60
2022/09/24 01:51:32;;;;;;;0.00;0.00;;;;;;;13.44;65.01;101465.31;7363193;19;20006;-59
2022/09/24 01:54:05;;;;;;;0.00;0.00;;;;;;;13.43;65.87;101463.56;7359161;19;20098;-60
2022/09/24 01:56:46;;;;;;;0.00;0.00;;;;;;;13.43;64.99;101463.56;7361594;19;20018;-59
2022/09/24 01:59:19;;;;;;;0.00;0.00;;;;;;;13.29;66.14;101429.78;7348012;19;20015;-59
2022/09/24 02:01:52;;;;;;;0.08;0.08;;;;;;;13.41;65.62;101454.88;7360209;19;20014;-60
2022/09/24 02:04:20;;;;;;;0.03;0.03;;;;;;;13.42;65.69;101462.69;7359107;19;20014;-60
2022/09/24 02:06:55;;;;;;;0.00;0.00;;;;;;;13.43;66.17;101463.56;7357655;19;20035;-59
2022/09/24 02:09:41;;;;;;;0.00;0.00;;;;;;;13.44;65.43;101465.31;7357257;19;21347;-60
2022/09/24 02:12:15;;;;;;;0.00;0.00;;;;;;;13.43;66.40;101463.56;7359040;19;20020;-60
2022/09/24 02:14:49;;;;;;;0.00;0.00;;;;;;;13.45;65.78;101461.78;7358044;19;20053;-59
2022/09/24 02:17:15;;;;;;;0.00;0.00;;;;;;;13.43;66.67;101463.56;7359832;19;20022;-57
2022/09/24 02:19:41;;;;;;;0.10;0.10;;;;;;;13.44;66.50;101460.06;7355965;19;20010;-60
2022/09/24 02:22:10;;;;;;;0.00;0.00;;;;;;;13.35;66.62;101444.50;7357557;19;20014;-60
2022/09/24 02:24:59;;;;;;;0.00;0.00;;;;;;;13.47;65.55;101459.97;7358435;19;20038;-59
2022/09/24 02:27:27;;;;;;;0.00;0.00;;;;;;;13.37;66.83;101440.09;7358265;19;20007;-59
2022/09/24 02:29:57;;;;;;;0.00;0.00;;;;;;;13.45;66.53;101440.78;7355559;19;20010;-59
2022/09/24 02:32:26;;;;;;;0.00;0.00;;;;;;;13.47;66.35;101449.47;7360665;19;20047;-59
2022/09/24 02:34:58;;;;;;;0.00;0.00;;;;;;;13.46;66.59;101442.50;7359498;19;20031;-60
2022/09/24 02:37:24;;;;;;;0.00;0.00;;;;;;;13.45;66.90;101446.88;7357409;19;20015;-59
2022/09/24 02:39:50;;;;;;;0.00;0.00;;;;;;;13.36;66.90;101438.38;7359620;19;20011;-59
2022/09/24 02:42:18;;;;;;;0.00;0.00;;;;;;;13.47;66.40;101454.72;7359276;19;20021;-60
2022/09/24 02:44:43;;;;;;;0.00;0.00;;;;;;;13.47;66.71;101438.97;7355305;19;20039;-59
2022/09/24 02:47:09;;;;;;;0.00;0.00;;;;;;;13.45;66.54;101451.28;7356126;19;20018;-59
2022/09/24 02:49:35;;;;;;;0.00;0.00;;;;;;;13.47;66.26;101454.72;7359587;19;20014;-59
2022/09/24 02:52:01;;;;;;;0.00;0.00;;;;;;;13.47;66.75;101438.97;7357263;19;20024;-59
2022/09/24 02:54:26;;;;;;;0.00;0.00;;;;;;;13.48;66.70;101446.84;7356580;19;20018;-58
2022/09/24 02:56:52;;;;;;;0.00;0.00;;;;;;;13.48;66.95;101445.94;7358524;19;20553;-59
2022/09/24 02:59:18;;;;;;;0.00;0.00;;;;;;;13.47;66.98;101444.22;7356586;19;20086;-59
2022/09/24 03:01:44;;;;;;;0.00;0.00;;;;;;;13.45;66.54;101448.66;7356998;19;20518;-60
2022/09/24 03:04:10;;;;;;;0.00;0.00;;;;;;;13.45;67.00;101456.53;7349807;19;20010;-60
2022/09/24 03:06:36;;;;;;;0.00;0.00;;;;;;;13.40;66.98;101448.75;7355941;19;20011;-60
2022/09/24 03:09:03;;;;;;;0.00;0.00;;;;;;;13.43;66.88;101453.06;7358135;19;20383;-59
2022/09/24 03:11:30;;;;;;;0.00;0.00;;;;;;;13.40;66.85;101451.38;7358319;19;20021;-60
2022/09/24 03:13:55;;;;;;;0.00;0.00;;;;;;;13.39;66.74;101451.41;7354864;19;20023;-60
2022/09/24 03:16:21;;;;;;;0.00;0.00;;;;;;;13.37;67.21;101448.81;7358882;19;20034;-60
2022/09/24 03:18:47;;;;;;;0.00;0.00;;;;;;;13.36;67.32;101454.09;7351558;19;20002;-60
2022/09/24 03:21:15;;;;;;;0.00;0.00;;;;;;;13.28;67.10;101440.28;7358624;19;20105;-60
2022/09/24 03:23:40;;;;;;;0.05;0.05;;;;;;;13.22;66.81;101436.91;7357736;19;20105;-59
2022/09/24 03:26:06;;;;;;;0.00;0.00;;;;;;;13.31;66.72;101456.81;7357916;19;20515;-60
2022/09/24 03:28:32;;;;;;;0.00;0.00;;;;;;;13.30;67.17;101455.09;7357494;19;20055;-59
2022/09/24 03:31:00;;;;;;;0.00;0.00;;;;;;;13.28;67.21;101458.63;7358793;19;20018;-60
2022/09/24 03:33:28;;;;;;;0.00;0.00;;;;;;;13.27;67.40;101456.91;7359375;19;20018;-60
2022/09/24 03:36:15;;;;;;;0.00;0.00;;;;;;;13.23;66.65;101464.00;7358088;19;20372;-59
2022/09/24 03:38:42;;;;;;;0.08;0.08;;;;;;;13.20;67.43;101457.03;7355381;19;20828;-60
2022/09/24 03:41:09;;;;;;;0.00;0.00;;;;;;;13.18;67.44;101461.47;7356276;19;20023;-59
2022/09/24 03:43:35;;;;;;;0.00;0.00;;;;;;;13.04;67.21;101442.53;7357526;19;20007;-60
2022/09/24 03:46:01;;;;;;;0.00;0.00;;;;;;;13.12;67.71;101458.94;7357437;19;20037;-59
2022/09/24 03:48:27;;;;;;;0.00;0.00;;;;;;;13.10;67.47;101465.97;7357210;19;20010;-60
2022/09/24 03:50:53;;;;;;;0.00;0.00;;;;;;;13.07;67.88;101467.78;7358313;19;20010;-60
2022/09/24 03:53:18;;;;;;;0.05;0.05;;;;;;;13.01;67.96;101462.69;7358733;19;20011;-60
2022/09/24 03:55:46;;;;;;;0.05;0.05;;;;;;;13.00;67.91;101469.69;7358684;19;20006;-60
2022/09/24 03:58:14;;;;;;;0.00;0.00;;;;;;;12.98;68.55;101471.50;7359237;19;20010;-60
2022/09/24 04:00:40;;;;;;;0.00;0.00;;;;;;;12.93;67.92;101468.09;7359258;19;20034;-60
2022/09/24 04:03:06;;;;;;;0.00;0.00;;;;;;;12.89;67.73;101474.28;7353595;19;20010;-61
2022/09/24 04:05:31;;;;;;;0.00;0.00;;;;;;;12.86;68.36;101476.97;7357364;19;20022;-60
2022/09/24 04:07:58;;;;;;;0.00;0.00;;;;;;;12.80;67.76;101471.84;7363893;19;21005;-59
2022/09/24 04:10:24;;;;;;;0.00;0.00;;;;;;;12.76;67.92;101475.41;7362182;19;20022;-59
2022/09/24 04:12:51;;;;;;;0.00;0.00;;;;;;;12.72;68.87;101472.88;7365601;19;20026;-60
2022/09/24 04:15:17;;;;;;;0.00;0.00;;;;;;;12.68;68.87;101483.44;7363355;19;20021;-60
2022/09/24 04:17:52;;;;;;;0.00;0.00;;;;;;;12.65;67.92;101478.25;7368380;19;20771;-60
2022/09/24 04:20:22;;;;;;;0.00;0.00;;;;;;;12.52;68.32;101472.38;7363970;19;20027;-60
2022/09/24 04:22:52;;;;;;;0.00;0.00;;;;;;;12.56;68.08;101478.41;7364027;19;20010;-60
2022/09/24 04:25:19;;;;;;;0.00;0.00;;;;;;;12.46;68.61;101482.94;7365318;19;20383;-60
2022/09/24 04:27:45;;;;;;;0.00;0.00;;;;;;;12.40;67.89;101476.06;7364352;19;20014;-59
2022/09/24 04:30:12;;;;;;;0.00;0.00;;;;;;;12.41;68.76;101484.78;7362208;19;20572;-60
2022/09/24 04:32:38;;;;;;;0.00;0.00;;;;;;;12.36;69.05;101478.75;7363571;19;20010;-60
2022/09/24 04:35:05;;;;;;;0.00;0.00;;;;;;;12.33;68.60;101481.47;7363142;19;20013;-57
2022/09/24 04:37:30;;;;;;;0.00;0.00;;;;;;;12.28;69.06;101475.44;7362768;19;20018;-60
2022/09/24 04:39:56;;;;;;;0.00;0.00;;;;;;;12.25;68.60;101483.34;7362283;19;20430;-60
2022/09/24 04:42:21;;;;;;;0.00;0.00;;;;;;;12.18;68.67;101472.09;7365574;19;20019;-60
2022/09/24 04:44:47;;;;;;;0.00;0.00;;;;;;;12.16;68.82;101474.72;7361194;19;20036;-60
2022/09/24 04:47:16;;;;;;;0.00;0.00;;;;;;;12.13;68.72;101477.41;7362312;19;20019;-59
2022/09/24 04:49:43;;;;;;;0.00;0.00;;;;;;;12.09;69.12;101480.09;7363279;19;20007;-59
2022/09/24 04:52:09;;;;;;;0.00;0.00;;;;;;;11.95;69.36;101464.63;7363705;19;20022;-59
2022/09/24 04:54:35;;;;;;;0.00;0.00;;;;;;;12.01;68.80;101480.22;7363173;19;20023;-60
2022/09/24 04:57:00;;;;;;;0.00;0.00;;;;;;;11.96;68.78;101482.03;7361977;19;20010;-59
2022/09/24 04:59:26;;;;;;;0.00;0.00;;;;;;;11.91;68.97;101484.75;7361910;19;20018;-60
2022/09/24 05:01:52;;;;;;;0.00;0.00;;;;;;;11.89;69.38;101494.38;7364052;19;20007;-60
2022/09/24 05:04:17;;;;;;;0.00;0.00;;;;;;;11.85;69.14;101494.44;7362009;19;20018;-60
2022/09/24 05:06:43;;;;;;;0.00;0.00;;;;;;;11.81;68.91;101495.34;7364837;19;20030;-60
2022/09/24 05:09:09;;;;;;;0.00;0.00;;;;;;;11.78;69.67;101487.56;7361649;19;20035;-61
2022/09/24 05:11:34;;;;;;;0.00;0.00;;;;;;;11.75;69.48;101495.44;7363144;19;20006;-59
2022/09/24 05:13:59;;;;;;;0.00;0.00;;;;;;;11.69;69.03;101492.03;7362150;19;20018;-59
2022/09/24 05:16:25;;;;;;;0.08;0.08;;;;;;;11.68;69.01;101489.44;7362862;19;20130;-59
2022/09/24 05:18:50;;;;;;;0.10;0.10;;;;;;;11.66;69.93;101489.47;7361504;19;20010;-60
2022/09/24 05:21:16;;;;;;;0.00;0.00;;;;;;;11.65;69.56;101492.94;7363208;19;20006;-60
2022/09/24 05:23:41;;;;;;;0.00;0.00;;;;;;;11.65;69.78;101499.94;7362094;19;20002;-59
2022/09/24 05:28:52;;;;;;;0.00;0.00;;;;;;;11.65;70.13;101498.19;7362317;19;20018;-61
2022/09/24 05:31:17;;;;;;;0.00;0.00;;;;;;;11.67;69.79;101501.66;7362521;19;20022;-57
2022/09/24 05:33:43;;;;;;;0.00;0.00;;;;;;;11.69;69.93;101499.88;7362232;19;20017;-60
2022/09/24 05:36:08;;;;;;;0.10;0.10;;;;;;;11.58;70.04;101483.47;7362234;19;20015;-60
2022/09/24 05:38:34;;;;;;;0.00;0.00;;;;;;;11.74;70.12;101517.25;7360840;19;20026;-59
2022/09/24 05:41:00;;;;;;;0.00;0.00;;;;;;;11.76;70.23;101521.59;7362746;19;20010;-60
2022/09/24 05:43:26;;;;;;;0.00;0.00;;;;;;;11.80;70.00;101525.03;7361890;19;20074;-60
2022/09/24 05:45:53;;;;;;;0.00;0.00;;;;;;;11.82;70.15;101528.53;7362559;19;20870;-60
2022/09/24 05:48:19;;;;;;;0.00;0.00;;;;;;;11.81;70.04;101518.88;7362509;19;20034;-60
2022/09/24 05:50:45;;;;;;;0.00;0.00;;;;;;;11.88;70.37;101520.56;7363460;19;20030;-60
2022/09/24 05:53:11;;;;;;;0.00;0.00;;;;;;;11.84;69.81;101519.75;7360285;19;20805;-59
2022/09/24 05:55:36;;;;;;;0.00;0.00;;;;;;;11.92;70.23;101525.75;7362314;19;20027;-60
2022/09/24 05:58:06;;;;;;;0.00;0.00;;;;;;;11.95;69.61;101533.53;7354246;19;20145;-58
2022/09/24 06:00:32;;;;;;;0.00;0.00;;;;;;;11.98;69.86;101537.00;7359099;19;20034;-59
2022/09/24 06:03:04;;;;;;;0.00;0.00;;;;;;;11.99;69.62;101536.97;7358145;19;20006;-60
2022/09/24 06:05:29;;;;;;;0.00;0.00;;;;;;;11.97;69.53;101546.63;7357685;19;20010;-60
2022/09/24 06:07:55;;;;;;;0.00;0.00;;;;;;;11.92;69.84;101538.84;7359127;19;20530;-60
2022/09/24 06:10:20;;;;;;;0.00;0.00;;;;;;;11.98;69.47;101550.97;7358840;19;20037;-58
2022/09/24 06:12:46;;;;;;;0.00;0.00;;;;;;;11.97;69.95;101546.63;7357872;19;20024;-60
2022/09/24 06:15:12;;;;;;;0.00;0.00;;;;;;;11.94;69.57;101546.66;7358092;19;20035;-60
2022/09/24 06:17:38;;;;;;;0.00;0.00;;;;;;;11.92;69.95;101544.06;7359239;19;20018;-60
2022/09/24 06:20:04;;;;;;;0.00;0.00;;;;;;;11.96;69.89;101555.34;7355870;19;20023;-60
2022/09/24 06:22:29;;;;;;;0.00;0.00;;;;;;;11.96;69.89;101565.81;7358547;19;20019;-60
2022/09/24 06:24:55;;;;;;;0.00;0.00;;;;;;;11.91;69.88;101554.53;7354959;19;20018;-60
2022/09/24 06:27:20;;;;;;;0.00;0.00;;;;;;;11.94;69.75;101568.47;7356969;19;20030;-59
2022/09/24 06:29:46;;;;;;;0.00;0.00;;;;;;;11.94;69.50;101564.97;7356665;19;20014;-60
2022/09/24 06:32:11;;;;;;;0.00;0.00;;;;;;;11.94;69.79;101562.38;7357471;19;20010;-60
2022/09/24 06:34:37;;;;;;;0.00;0.00;;;;;;;11.94;70.02;101571.06;7360611;19;20024;-60
2022/09/24 06:37:02;;;;;;;0.00;0.00;;;;;;;11.95;70.04;101567.56;7352506;19;20466;-60
2022/09/24 06:39:28;;;;;;;0.00;0.00;;;;;;;11.93;70.07;101568.50;7352457;19;20019;-58
2022/09/24 06:41:53;;;;;;;0.00;0.00;;;;;;;11.95;70.23;101564.09;7360204;19;20097;-58
2022/09/24 06:44:19;;;;;;;0.00;0.00;;;;;;;11.95;70.50;101564.09;7358730;19;20106;-60
2022/09/24 06:46:44;;;;;;;0.00;0.00;;;;;;;11.94;70.23;101567.59;7356753;19;20011;-60
2022/09/24 06:49:11;;;;;;;0.00;0.00;;;;;;;11.94;70.04;101572.84;7356555;19;20006;-60
2022/09/24 06:51:36;;;;;;;0.00;0.00;;;;;;;11.91;69.72;101578.09;7358895;19;20010;-60
2022/09/24 06:54:02;;;;;;;0.00;0.00;;;;;;;11.75;69.99;101560.84;7355442;19;20014;-59
2022/09/24 06:56:29;;;;;;;0.10;0.10;;;;;;;11.78;70.38;101566.06;7357023;19;20014;-60
2022/09/24 06:58:55;;;;;;;0.00;0.00;;;;;;;11.87;70.13;101586.91;7357737;19;20047;-55
2022/09/24 07:01:21;;;;;;;0.00;0.00;;;;;;;11.87;70.38;101592.13;7359840;19;20018;-59
2022/09/24 07:03:46;;;;;;;0.00;0.00;;;;;;;11.78;70.42;101579.13;7357967;19;20091;-59
2022/09/24 07:06:12;;;;;;;0.00;0.00;;;;;;;11.90;70.24;101586.84;7356050;19;20514;-59
2022/09/24 07:08:37;;;;;;;0.00;0.00;;;;;;;11.91;70.22;101583.31;7359306;19;20009;-60
2022/09/24 07:11:03;;;;;;;0.00;0.00;;;;;;;11.94;70.32;101585.91;7358039;19;20821;-59
2022/09/24 07:13:28;;;;;;;0.00;0.00;;;;;;;11.98;70.28;101600.69;7356557;19;20013;-57
2022/09/24 07:15:54;;;;;;;0.00;0.00;;;;;;;11.99;70.50;101602.41;7348614;19;20041;-58
2022/09/24 07:18:20;;;;;;;0.00;0.00;;;;;;;12.06;70.74;101609.28;7356384;19;20016;-60
2022/09/24 07:20:55;;;;;;;0.00;0.00;;;;;;;12.15;70.05;101614.41;7356671;19;20014;-60
2022/09/24 07:23:21;;;;;;;0.00;0.00;;;;;;;12.18;70.32;101598.66;7351903;19;20616;-59
2022/09/24 07:25:47;;;;;;;0.00;0.00;;;;;;;12.24;70.39;101602.06;7354975;19;20014;-60
2022/09/24 07:28:17;;;;;;;0.00;0.00;;;;;;;12.29;70.40;101605.47;7353048;19;20020;-60
2022/09/24 07:30:43;;;;;;;0.00;0.00;;;;;;;12.23;70.46;101589.88;7352626;19;20899;-59
2022/09/24 07:33:08;;;;;;;0.00;0.00;;;;;;;12.40;70.03;101611.41;7354147;19;20784;-59
2022/09/24 07:35:37;;;;;;;0.00;0.00;;;;;;;12.48;69.99;101611.31;7353173;19;20017;-59
2022/09/24 07:38:05;;;;;;;0.10;0.10;;;;;;;12.52;69.93;101607.72;7356257;19;20011;-60
2022/09/24 07:40:31;;;;;;;0.00;0.00;;;;;;;12.55;69.90;101611.16;7361064;19;20045;-60
2022/09/24 07:42:58;;;;;;;0.00;0.00;;;;;;;12.60;69.83;101605.84;7358562;19;20016;-59
2022/09/24 07:45:28;;;;;;;0.00;0.00;;;;;;;12.66;69.89;101605.75;7359095;19;20132;-60
2022/09/24 07:47:58;;;;;;;0.00;0.00;;;;;;;12.71;69.93;101614.41;7360551;19;20021;-59
2022/09/24 07:50:23;;;;;;;0.00;0.00;;;;;;;12.74;69.91;101611.75;7357608;19;20377;-59
2022/09/24 07:52:50;;;;;;;0.00;0.00;;;;;;;12.78;69.71;101605.56;7363867;19;20021;-59
2022/09/24 07:55:15;;;;;;;0.00;0.00;;;;;;;12.82;69.49;101611.59;7359261;19;20052;-60
2022/09/24 07:57:46;;;;;;;0.00;0.00;;;;;;;12.89;69.81;101615.84;7361002;19;20024;-58
2022/09/24 08:00:12;;;;;;;0.00;0.00;;;;;;;12.90;69.31;101614.94;7359367;19;20007;-60
2022/09/24 08:02:38;;;;;;;0.00;0.00;;;;;;;12.93;69.60;101621.00;7360415;19;20014;-60
2022/09/24 08:05:04;;;;;;;0.00;0.00;;;;;;;13.00;69.59;101627.00;7358177;19;20356;-60
2022/09/24 08:07:30;;;;;;;0.00;0.00;;;;;;;13.05;69.29;101624.31;7358715;19;20033;-59
2022/09/24 08:09:55;;;;;;;0.00;0.00;;;;;;;13.10;69.42;101628.56;7356365;19;20085;-60
2022/09/24 08:12:26;;;;;;;0.00;0.00;;;;;;;13.08;69.60;101617.25;7359250;19;20027;-60
2022/09/24 08:14:52;;;;;;;0.00;0.00;;;;;;;13.12;69.39;101618.91;7358030;19;20077;-60
2022/09/24 08:17:17;;;;;;;0.00;0.00;;;;;;;13.28;69.23;101637.00;7360407;19;20660;-59
2022/09/24 08:19:45;;;;;;;0.00;0.00;;;;;;;13.33;69.32;101637.78;7356263;19;20038;-60
2022/09/24 08:22:13;;;;;;;0.00;0.00;;;;;;;13.39;69.34;101640.31;7356772;19;20038;-59
2022/09/24 08:24:39;;;;;;;0.00;0.00;;;;;;;13.44;69.28;101646.34;7358817;19;20014;-60
2022/09/24 08:27:04;;;;;;;0.00;0.00;;;;;;;13.50;68.72;101648.84;7361427;19;20018;-60
2022/09/24 08:29:30;;;;;;;0.00;0.00;;;;;;;13.56;69.02;101648.72;7358845;19;20479;-59
2022/09/24 08:31:55;;;;;;;0.00;0.00;;;;;;;13.62;68.95;101647.72;7360038;19;20028;-58
2022/09/24 08:34:20;;;;;;;0.00;0.00;;;;;;;13.66;68.96;101650.25;7357071;19;20025;-61
2022/09/24 08:36:46;;;;;;;0.00;0.00;;;;;;;13.74;68.70;101652.75;7361596;19;20061;-59
2022/09/24 08:39:12;;;;;;;0.00;0.00;;;;;;;13.81;68.73;101648.22;7357676;19;20051;-60
2022/09/24 08:41:43;;;;;;;0.00;0.00;;;;;;;13.87;68.52;101656.81;7357075;19;20169;-60
2022/09/24 08:44:12;;;;;;;0.05;0.05;;;;;;;13.97;68.66;101655.72;7356294;19;20022;-60
2022/09/24 08:49:48;;;;;;;0.05;0.05;;;;;;;14.17;68.14;101654.44;7249695;19;2004455;-59
2022/09/24 08:52:31;;;;;;;0.00;0.00;;;;;;;14.23;68.16;101651.66;7355076;19;20558;-61
2022/09/24 08:55:03;;;;;;;0.00;0.00;;;;;;;14.30;68.42;101658.53;7360111;19;20035;-59
2022/09/24 08:57:48;;;;;;;0.00;0.00;;;;;;;14.40;67.89;101660.03;7362707;19;20372;-60
2022/09/24 09:00:14;;;;;;;0.00;0.00;;;;;;;14.44;68.04;101664.28;7358949;19;20016;-60
2022/09/24 09:02:39;;;;;;;0.00;0.00;;;;;;;14.52;68.38;101669.41;7358372;19;20017;-58
2022/09/24 09:05:42;;;;;;;0.00;0.00;;;;;;;14.68;68.29;101660.25;7354507;19;20567;-59
2022/09/24 09:08:30;;;;;;;0.00;0.00;;;;;;;14.81;67.85;101665.25;7253644;19;2004582;-59
2022/09/24 09:11:02;;;;;;;0.03;0.03;;;;;;;14.98;68.03;101670.91;7358029;19;20330;-58
2022/09/24 09:13:56;;;;;;;0.10;0.10;;;;;;;15.27;68.34;101671.03;7354637;19;20018;-60
2022/09/24 09:16:28;;;;;;;0.05;0.05;;;;;;;15.46;67.48;101675.78;7245561;19;2004262;-60
2022/09/24 09:19:03;;;;;;;0.05;0.05;;;;;;;15.68;67.10;101670.84;7351565;19;20010;-60
2022/09/24 09:21:41;;;;;;;0.10;0.10;;;;;;;15.92;67.03;101674.53;7351483;19;20041;-60
2022/09/24 09:24:16;;;;;;;0.00;0.00;;;;;;;16.12;66.36;101674.81;7351589;19;20074;-59
2022/09/24 09:26:47;;;;;;;0.10;0.10;;;;;;;16.26;66.69;101664.69;7352009;19;20090;-59
2022/09/24 09:29:12;;;;;;;0.00;0.00;;;;;;;16.58;65.61;101674.22;7350391;19;20025;-59
2022/09/24 09:31:59;;;;;;;0.00;0.00;;;;;;;17.01;65.91;101675.47;7350571;19;20010;-60
2022/09/24 09:34:38;;;;;;;0.00;0.00;;;;;;;17.46;65.23;101676.56;7248009;19;2004262;-60
2022/09/24 09:37:36;;;;;;;0.10;0.10;;;;;;;17.96;65.55;101681.81;7351680;19;20014;-60
2022/09/24 09:40:26;;;;;;;0.00;0.00;;;;;;;18.46;65.99;101671.06;7248625;19;2004279;-58
2022/09/24 09:43:02;;;;;;;0.00;0.00;;;;;;;18.85;63.84;101663.28;7351461;19;20790;-60
2022/09/24 09:46:02;;;;;;;0.10;0.10;;;;;;;19.30;63.74;101671.03;7352995;19;20042;-60
2022/09/24 09:48:41;;;;;;;0.00;0.00;;;;;;;19.56;60.47;101676.97;7248813;19;2004130;-60
2022/09/24 09:51:15;;;;;;;0.00;0.00;;;;;;;19.77;58.99;101670.78;7351617;19;20010;-61
2022/09/24 09:53:53;;;;;;;0.08;0.08;;;;;;;19.92;59.66;101670.06;7352454;19;20109;-60
2022/09/24 09:56:23;;;;;;;0.00;0.00;;;;;;;19.91;57.49;101672.75;7351381;19;20014;-59
2022/09/24 09:58:54;;;;;;;0.00;0.00;;;;;;;19.81;55.87;101676.78;7347658;19;20478;-60
2022/09/24 10:01:30;;;;;;;0.10;0.10;;;;;;;19.90;57.97;101687.81;7351522;19;20006;-59
2022/09/24 10:04:00;;;;;;;0.00;0.00;;;;;;;19.86;56.16;101686.22;7349950;19;20126;-59
2022/09/24 10:06:34;;;;;;;0.10;0.10;;;;;;;19.90;56.49;101686.97;7346456;19;20017;-59
2022/09/24 10:09:15;;;;;;;0.10;0.10;;;;;;;19.89;57.50;101690.53;7344202;19;20014;-59
2022/09/24 10:11:41;;;;;;;0.03;0.03;;;;;;;19.79;54.17;101690.09;7352133;19;20133;-60
2022/09/24 10:14:12;;;;;;;0.10;0.10;;;;;;;19.88;56.11;101700.28;7351966;19;20023;-59
2022/09/24 10:16:40;;;;;;;0.00;0.00;;;;;;;19.89;55.13;101691.41;7350287;19;20454;-59
2022/09/24 10:19:24;;;;;;;0.00;0.00;;;;;;;20.03;56.89;101692.56;7350910;19;20015;-59
2022/09/24 10:21:52;;;;;;;0.10;0.10;;;;;;;20.04;55.13;101694.28;7351915;19;20114;-59
2022/09/24 10:24:21;;;;;;;0.10;0.10;;;;;;;20.19;54.47;101702.38;7350101;19;20051;-59
2022/09/24 10:26:47;;;;;;;0.10;0.10;;;;;;;20.33;54.27;101700.88;7350932;19;20044;-60
2022/09/24 10:32:19;;;;;;;0.00;0.00;;;;;;;20.95;55.08;101702.28;7245343;19;2004475;-59
2022/09/24 10:35:04;;;;;;;0.10;0.10;;;;;;;21.27;55.92;101697.13;7348475;19;20018;-59
2022/09/24 10:37:30;;;;;;;0.05;0.05;;;;;;;21.45;52.37;101702.38;7350421;19;20018;-59
2022/09/24 10:39:57;;;;;;;0.10;0.10;;;;;;;21.76;52.19;101708.72;7350534;19;20010;-60
2022/09/24 10:42:25;;;;;;;0.10;0.10;;;;;;;22.03;51.04;101715.22;7349210;19;20766;-57
2022/09/24 10:44:50;;;;;;;;;;;;;;;22.40;56.98;101715.84;7350299;19;20090;-59
2022/09/24 10:47:28;;;;;;;0.10;0.10;;;;;;;22.53;54.23;101711.56;7346562;19;19915;-59
2022/09/24 10:49:56;;;;;;;0.00;0.00;;;;;;;22.52;48.84;101709.84;7350688;19;20003;-59
2022/09/24 10:52:30;;;;;;;0.00;0.00;;;;;;;22.45;48.70;101724.44;7347440;19;20015;-60
2022/09/24 10:55:10;;;;;;;0.10;0.10;;;;;;;22.32;48.83;101720.78;7347712;19;20014;-58
2022/09/24 10:58:14;;;;;;;0.05;0.05;;;;;;;22.39;50.74;101722.13;7349154;19;20010;-60
2022/09/24 11:01:02;;;;;;;0.00;0.00;;;;;;;22.41;51.83;101712.28;7242797;19;2004200;-60
2022/09/24 11:03:52;;;;;;;0.03;0.03;;;;;;;22.51;51.46;101726.78;7330553;19;20010;-59
2022/09/24 11:06:38;;;;;;;0.10;0.10;;;;;;;22.58;49.87;101710.47;7326340;19;20877;-59
2022/09/24 11:09:04;;;;;;;;;;;;;;;22.92;54.46;101715.59;7325037;19;21199;-59
2022/09/24 11:11:39;;;;;;;0.10;0.10;;;;;;;23.04;48.43;101722.00;7326930;19;19931;-57
2022/09/24 11:14:10;;;;;;;0.10;0.10;;;;;;;23.44;50.99;101715.16;7330142;19;20019;-59
2022/09/24 11:16:48;;;;;;;0.08;0.08;;;;;;;23.77;50.21;101720.28;7338396;19;20011;-59
2022/09/24 11:19:24;;;;;;;0.10;0.10;;;;;;;24.01;47.97;101717.00;7341221;19;20109;-57
2022/09/24 11:21:50;;;;;;;0.10;0.10;;;;;;;24.10;45.08;101715.56;7347087;19;20014;-60
2022/09/24 11:24:22;;;;;;;0.10;0.10;;;;;;;24.36;45.08;101720.13;7343987;19;20963;-60
2022/09/24 11:26:57;;;;;;;0.10;0.10;;;;;;;24.53;46.47;101713.69;7342485;19;20014;-59
2022/09/24 11:29:49;;;;;;;0.00;0.00;;;;;;;24.68;47.73;101711.81;7350119;19;20728;-60
2022/09/24 11:32:54;;;;;;;0.00;0.00;;;;;;;24.87;46.65;101706.97;7243021;19;2004493;-59
2022/09/24 11:35:41;;;;;;;0.10;0.10;;;;;;;25.23;47.56;101710.81;7246528;19;2004256;-60
2022/09/24 11:38:16;;;;;;;0.03;0.03;;;;;;;25.57;46.51;101720.91;7348292;19;20014;-59
2022/09/24 11:40:45;;;;;;;0.10;0.10;;;;;;;25.94;43.70;101712.13;7349618;19;20521;-60
2022/09/24 11:43:31;;;;;;;0.00;0.00;;;;;;;26.11;40.99;101709.13;7350281;19;20018;-59
2022/09/24 11:46:10;;;;;;;0.10;0.10;;;;;;;26.39;44.21;101718.66;7346807;19;20033;-60
2022/09/24 11:48:55;;;;;;;0.00;0.00;;;;;;;26.34;42.03;101720.81;7341215;19;20017;-59
2022/09/24 11:51:49;;;;;;;0.00;0.00;;;;;;;26.21;42.11;101725.38;7343618;19;20006;-60
2022/09/24 11:54:53;;;;;;;0.03;0.03;;;;;;;26.04;43.85;101718.53;7237864;19;2004662;-59